sensor_id;sensor_type;location;lat;lon;timestamp;P1;durP1;ratioP1;P2;durP2;ratioP2
18290;SDS011;9271;48.590;8.866;2023-05-16T00:01:21;10.27;;;7.03;;
18290;SDS011;9271;48.590;8.866;2023-05-16T00:03:48;7.30;;;6.70;;
18290;SDS011;9271;48.590;8.866;2023-05-16T00:06:15;6.97;;;6.37;;
18290;SDS011;9271;48.590;8.866;2023-05-16T00:08:43;7.53;;;6.67;;
18290;SDS011;9271;48.590;8.866;2023-05-16T00:11:10;7.03;;;6.43;;
18290;SDS011;9271;48.590;8.866;2023-05-16T00:13:36;7.50;;;6.80;;
18290;SDS011;9271;48.590;8.866;2023-05-16T00:16:06;7.73;;;6.60;;
18290;SDS011;9271;48.590;8.866;2023-05-16T00:18:34;6.90;;;6.30;;
18290;SDS011;9271;48.590;8.866;2023-05-16T00:21:01;6.80;;;6.20;;
18290;SDS011;9271;48.590;8.866;2023-05-16T00:23:28;7.30;;;6.70;;
18290;SDS011;9271;48.590;8.866;2023-05-16T00:25:56;7.00;;;6.40;;
18290;SDS011;9271;48.590;8.866;2023-05-16T00:28:23;8.40;;;7.47;;
18290;SDS011;9271;48.590;8.866;2023-05-16T00:30:50;8.87;;;7.40;;
18290;SDS011;9271;48.590;8.866;2023-05-16T00:33:16;8.37;;;7.50;;
18290;SDS011;9271;48.590;8.866;2023-05-16T00:35:43;8.13;;;7.33;;
18290;SDS011;9271;48.590;8.866;2023-05-16T00:38:10;9.10;;;8.27;;
18290;SDS011;9271;48.590;8.866;2023-05-16T00:40:36;8.40;;;7.53;;
18290;SDS011;9271;48.590;8.866;2023-05-16T00:43:05;8.90;;;8.13;;
18290;SDS011;9271;48.590;8.866;2023-05-16T00:45:31;9.17;;;8.37;;
18290;SDS011;9271;48.590;8.866;2023-05-16T00:47:58;9.17;;;8.37;;
18290;SDS011;9271;48.590;8.866;2023-05-16T00:50:25;10.00;;;8.87;;
18290;SDS011;9271;48.590;8.866;2023-05-16T00:52:51;10.97;;;10.03;;
18290;SDS011;9271;48.590;8.866;2023-05-16T00:55:18;11.57;;;10.53;;
18290;SDS011;9271;48.590;8.866;2023-05-16T00:57:45;11.70;;;10.60;;
18290;SDS011;9271;48.590;8.866;2023-05-16T01:00:13;12.40;;;11.30;;
18290;SDS011;9271;48.590;8.866;2023-05-16T01:02:40;13.57;;;11.47;;
18290;SDS011;9271;48.590;8.866;2023-05-16T01:05:08;13.50;;;12.13;;
18290;SDS011;9271;48.590;8.866;2023-05-16T01:07:35;15.43;;;13.93;;
18290;SDS011;9271;48.590;8.866;2023-05-16T01:10:02;14.87;;;13.47;;
18290;SDS011;9271;48.590;8.866;2023-05-16T01:12:34;14.90;;;13.47;;
18290;SDS011;9271;48.590;8.866;2023-05-16T01:15:04;15.73;;;14.17;;
18290;SDS011;9271;48.590;8.866;2023-05-16T01:17:37;18.20;;;15.87;;
18290;SDS011;9271;48.590;8.866;2023-05-16T01:20:17;21.13;;;17.73;;
18290;SDS011;9271;48.590;8.866;2023-05-16T01:22:58;20.00;;;17.90;;
18290;SDS011;9271;48.590;8.866;2023-05-16T01:25:36;21.00;;;18.80;;
18290;SDS011;9271;48.590;8.866;2023-05-16T01:28:17;20.13;;;17.97;;
18290;SDS011;9271;48.590;8.866;2023-05-16T01:30:45;20.97;;;18.77;;
18290;SDS011;9271;48.590;8.866;2023-05-16T01:33:11;23.37;;;19.50;;
18290;SDS011;9271;48.590;8.866;2023-05-16T01:35:39;21.73;;;19.30;;
18290;SDS011;9271;48.590;8.866;2023-05-16T01:38:14;21.37;;;18.77;;
18290;SDS011;9271;48.590;8.866;2023-05-16T01:40:44;24.67;;;21.03;;
18290;SDS011;9271;48.590;8.866;2023-05-16T01:43:33;25.33;;;21.27;;
18290;SDS011;9271;48.590;8.866;2023-05-16T01:46:07;24.60;;;21.47;;
18290;SDS011;9271;48.590;8.866;2023-05-16T01:48:38;24.47;;;21.87;;
18290;SDS011;9271;48.590;8.866;2023-05-16T01:51:14;24.30;;;21.67;;
18290;SDS011;9271;48.590;8.866;2023-05-16T01:53:41;25.27;;;21.83;;
18290;SDS011;9271;48.590;8.866;2023-05-16T01:56:10;24.90;;;22.30;;
18290;SDS011;9271;48.590;8.866;2023-05-16T01:58:42;24.03;;;21.50;;
18290;SDS011;9271;48.590;8.866;2023-05-16T02:01:11;25.73;;;22.93;;
18290;SDS011;9271;48.590;8.866;2023-05-16T02:03:38;29.20;;;24.23;;
18290;SDS011;9271;48.590;8.866;2023-05-16T02:06:05;27.37;;;23.60;;
18290;SDS011;9271;48.590;8.866;2023-05-16T02:08:32;26.77;;;23.87;;
18290;SDS011;9271;48.590;8.866;2023-05-16T02:10:59;28.70;;;23.83;;
18290;SDS011;9271;48.590;8.866;2023-05-16T02:13:25;29.63;;;23.97;;
18290;SDS011;9271;48.590;8.866;2023-05-16T02:15:53;29.37;;;25.03;;
18290;SDS011;9271;48.590;8.866;2023-05-16T02:18:20;30.37;;;25.00;;
18290;SDS011;9271;48.590;8.866;2023-05-16T02:20:47;29.40;;;25.93;;
18290;SDS011;9271;48.590;8.866;2023-05-16T02:23:14;27.63;;;24.63;;
18290;SDS011;9271;48.590;8.866;2023-05-16T02:25:41;32.50;;;25.73;;
18290;SDS011;9271;48.590;8.866;2023-05-16T02:28:07;32.23;;;26.10;;
18290;SDS011;9271;48.590;8.866;2023-05-16T02:30:34;31.10;;;25.63;;
18290;SDS011;9271;48.590;8.866;2023-05-16T02:33:02;32.43;;;26.77;;
18290;SDS011;9271;48.590;8.866;2023-05-16T02:35:29;32.10;;;26.03;;
18290;SDS011;9271;48.590;8.866;2023-05-16T02:37:56;32.17;;;26.33;;
18290;SDS011;9271;48.590;8.866;2023-05-16T02:40:22;33.57;;;27.00;;
18290;SDS011;9271;48.590;8.866;2023-05-16T02:42:49;31.77;;;26.03;;
18290;SDS011;9271;48.590;8.866;2023-05-16T02:45:16;33.83;;;26.60;;
18290;SDS011;9271;48.590;8.866;2023-05-16T02:47:42;33.47;;;25.93;;
18290;SDS011;9271;48.590;8.866;2023-05-16T02:50:10;31.27;;;26.83;;
18290;SDS011;9271;48.590;8.866;2023-05-16T02:52:37;34.40;;;26.87;;
18290;SDS011;9271;48.590;8.866;2023-05-16T02:55:04;33.73;;;28.40;;
18290;SDS011;9271;48.590;8.866;2023-05-16T02:57:32;36.57;;;28.47;;
18290;SDS011;9271;48.590;8.866;2023-05-16T02:59:58;37.43;;;28.97;;
18290;SDS011;9271;48.590;8.866;2023-05-16T03:02:25;38.00;;;29.67;;
18290;SDS011;9271;48.590;8.866;2023-05-16T03:04:52;38.90;;;30.67;;
18290;SDS011;9271;48.590;8.866;2023-05-16T03:07:20;38.50;;;30.27;;
18290;SDS011;9271;48.590;8.866;2023-05-16T03:09:46;39.77;;;31.07;;
18290;SDS011;9271;48.590;8.866;2023-05-16T03:12:13;39.53;;;31.47;;
18290;SDS011;9271;48.590;8.866;2023-05-16T03:14:40;40.50;;;32.07;;
18290;SDS011;9271;48.590;8.866;2023-05-16T03:17:06;42.43;;;32.93;;
18290;SDS011;9271;48.590;8.866;2023-05-16T03:19:33;42.90;;;32.47;;
18290;SDS011;9271;48.590;8.866;2023-05-16T03:22:00;37.83;;;30.07;;
18290;SDS011;9271;48.590;8.866;2023-05-16T03:24:28;42.23;;;32.10;;
18290;SDS011;9271;48.590;8.866;2023-05-16T03:26:54;45.43;;;32.33;;
18290;SDS011;9271;48.590;8.866;2023-05-16T03:29:21;42.33;;;32.13;;
18290;SDS011;9271;48.590;8.866;2023-05-16T03:31:48;41.83;;;33.10;;
18290;SDS011;9271;48.590;8.866;2023-05-16T03:34:15;41.80;;;32.53;;
18290;SDS011;9271;48.590;8.866;2023-05-16T03:36:41;41.97;;;33.10;;
18290;SDS011;9271;48.590;8.866;2023-05-16T03:39:08;44.63;;;33.20;;
18290;SDS011;9271;48.590;8.866;2023-05-16T03:41:36;41.37;;;33.37;;
18290;SDS011;9271;48.590;8.866;2023-05-16T03:44:03;42.67;;;32.93;;
18290;SDS011;9271;48.590;8.866;2023-05-16T03:46:30;42.33;;;33.23;;
18290;SDS011;9271;48.590;8.866;2023-05-16T03:48:56;46.33;;;34.10;;
18290;SDS011;9271;48.590;8.866;2023-05-16T03:51:23;43.37;;;33.87;;
18290;SDS011;9271;48.590;8.866;2023-05-16T03:53:50;42.47;;;33.30;;
18290;SDS011;9271;48.590;8.866;2023-05-16T03:56:17;45.43;;;34.07;;
18290;SDS011;9271;48.590;8.866;2023-05-16T03:58:45;45.40;;;34.17;;
18290;SDS011;9271;48.590;8.866;2023-05-16T04:01:11;45.60;;;34.37;;
18290;SDS011;9271;48.590;8.866;2023-05-16T04:03:38;47.17;;;34.67;;
18290;SDS011;9271;48.590;8.866;2023-05-16T04:06:05;44.87;;;35.00;;
18290;SDS011;9271;48.590;8.866;2023-05-16T04:08:32;44.63;;;33.83;;
18290;SDS011;9271;48.590;8.866;2023-05-16T04:10:59;44.37;;;34.27;;
18290;SDS011;9271;48.590;8.866;2023-05-16T04:13:26;45.03;;;34.60;;
18290;SDS011;9271;48.590;8.866;2023-05-16T04:15:54;41.97;;;33.03;;
18290;SDS011;9271;48.590;8.866;2023-05-16T04:18:20;44.03;;;33.40;;
18290;SDS011;9271;48.590;8.866;2023-05-16T04:20:47;43.33;;;32.80;;
18290;SDS011;9271;48.590;8.866;2023-05-16T04:23:14;45.47;;;33.77;;
18290;SDS011;9271;48.590;8.866;2023-05-16T04:25:40;43.13;;;34.67;;
18290;SDS011;9271;48.590;8.866;2023-05-16T04:28:07;44.93;;;33.10;;
18290;SDS011;9271;48.590;8.866;2023-05-16T04:30:34;40.60;;;32.20;;
18290;SDS011;9271;48.590;8.866;2023-05-16T04:33:02;40.77;;;31.87;;
18290;SDS011;9271;48.590;8.866;2023-05-16T04:35:30;38.57;;;31.43;;
18290;SDS011;9271;48.590;8.866;2023-05-16T04:37:57;40.03;;;30.97;;
18290;SDS011;9271;48.590;8.866;2023-05-16T04:40:24;36.83;;;30.40;;
18290;SDS011;9271;48.590;8.866;2023-05-16T04:42:51;37.97;;;29.63;;
18290;SDS011;9271;48.590;8.866;2023-05-16T04:45:19;36.17;;;29.43;;
18290;SDS011;9271;48.590;8.866;2023-05-16T04:47:45;35.50;;;28.57;;
18290;SDS011;9271;48.590;8.866;2023-05-16T04:50:13;36.50;;;30.00;;
18290;SDS011;9271;48.590;8.866;2023-05-16T04:52:42;34.93;;;28.67;;
18290;SDS011;9271;48.590;8.866;2023-05-16T04:55:09;34.67;;;29.33;;
18290;SDS011;9271;48.590;8.866;2023-05-16T04:57:36;38.10;;;29.27;;
18290;SDS011;9271;48.590;8.866;2023-05-16T05:00:03;36.50;;;28.87;;
18290;SDS011;9271;48.590;8.866;2023-05-16T05:02:32;33.90;;;28.43;;
18290;SDS011;9271;48.590;8.866;2023-05-16T05:04:59;34.83;;;29.80;;
18290;SDS011;9271;48.590;8.866;2023-05-16T05:07:27;37.37;;;30.40;;
18290;SDS011;9271;48.590;8.866;2023-05-16T05:09:54;34.03;;;29.00;;
18290;SDS011;9271;48.590;8.866;2023-05-16T05:12:21;37.03;;;29.33;;
18290;SDS011;9271;48.590;8.866;2023-05-16T05:14:48;34.63;;;29.13;;
18290;SDS011;9271;48.590;8.866;2023-05-16T05:17:14;34.23;;;28.37;;
18290;SDS011;9271;48.590;8.866;2023-05-16T05:19:42;35.40;;;28.47;;
18290;SDS011;9271;48.590;8.866;2023-05-16T05:22:08;34.60;;;28.30;;
18290;SDS011;9271;48.590;8.866;2023-05-16T05:24:37;37.30;;;31.13;;
18290;SDS011;9271;48.590;8.866;2023-05-16T05:27:04;35.40;;;28.87;;
18290;SDS011;9271;48.590;8.866;2023-05-16T05:29:31;35.23;;;28.83;;
18290;SDS011;9271;48.590;8.866;2023-05-16T05:31:57;35.23;;;29.10;;
18290;SDS011;9271;48.590;8.866;2023-05-16T05:34:24;36.03;;;29.47;;
18290;SDS011;9271;48.590;8.866;2023-05-16T05:36:51;32.80;;;27.87;;
18290;SDS011;9271;48.590;8.866;2023-05-16T05:39:18;33.33;;;28.97;;
18290;SDS011;9271;48.590;8.866;2023-05-16T05:41:46;35.07;;;28.93;;
18290;SDS011;9271;48.590;8.866;2023-05-16T05:44:12;38.70;;;28.93;;
18290;SDS011;9271;48.590;8.866;2023-05-16T05:46:39;34.33;;;27.87;;
18290;SDS011;9271;48.590;8.866;2023-05-16T05:49:06;32.67;;;27.73;;
18290;SDS011;9271;48.590;8.866;2023-05-16T05:51:33;30.77;;;27.40;;
18290;SDS011;9271;48.590;8.866;2023-05-16T05:54:00;31.70;;;26.50;;
18290;SDS011;9271;48.590;8.866;2023-05-16T05:56:27;30.83;;;25.87;;
18290;SDS011;9271;48.590;8.866;2023-05-16T05:58:55;29.87;;;26.20;;
18290;SDS011;9271;48.590;8.866;2023-05-16T06:01:22;29.77;;;24.93;;
18290;SDS011;9271;48.590;8.866;2023-05-16T06:03:48;32.10;;;25.73;;
18290;SDS011;9271;48.590;8.866;2023-05-16T06:06:16;29.70;;;25.30;;
18290;SDS011;9271;48.590;8.866;2023-05-16T06:08:43;27.80;;;24.80;;
18290;SDS011;9271;48.590;8.866;2023-05-16T06:11:09;29.77;;;24.70;;
18290;SDS011;9271;48.590;8.866;2023-05-16T06:13:36;27.07;;;23.80;;
18290;SDS011;9271;48.590;8.866;2023-05-16T06:16:04;30.87;;;25.33;;
18290;SDS011;9271;48.590;8.866;2023-05-16T06:18:31;27.60;;;24.57;;
18290;SDS011;9271;48.590;8.866;2023-05-16T06:20:58;27.50;;;23.77;;
18290;SDS011;9271;48.590;8.866;2023-05-16T06:23:25;31.57;;;25.37;;
18290;SDS011;9271;48.590;8.866;2023-05-16T06:25:51;27.50;;;24.10;;
18290;SDS011;9271;48.590;8.866;2023-05-16T06:28:18;29.07;;;24.43;;
18290;SDS011;9271;48.590;8.866;2023-05-16T06:30:45;28.97;;;24.97;;
18290;SDS011;9271;48.590;8.866;2023-05-16T06:33:13;29.33;;;24.10;;
18290;SDS011;9271;48.590;8.866;2023-05-16T06:35:40;30.37;;;25.20;;
18290;SDS011;9271;48.590;8.866;2023-05-16T06:38:07;31.50;;;26.50;;
18290;SDS011;9271;48.590;8.866;2023-05-16T06:40:34;31.43;;;25.43;;
18290;SDS011;9271;48.590;8.866;2023-05-16T06:43:02;28.07;;;23.50;;
18290;SDS011;9271;48.590;8.866;2023-05-16T06:45:28;26.13;;;23.43;;
18290;SDS011;9271;48.590;8.866;2023-05-16T06:47:55;26.20;;;23.20;;
18290;SDS011;9271;48.590;8.866;2023-05-16T06:50:23;26.47;;;22.93;;
18290;SDS011;9271;48.590;8.866;2023-05-16T06:52:50;27.33;;;22.50;;
18290;SDS011;9271;48.590;8.866;2023-05-16T06:55:16;24.90;;;22.30;;
18290;SDS011;9271;48.590;8.866;2023-05-16T06:57:43;23.80;;;20.90;;
18290;SDS011;9271;48.590;8.866;2023-05-16T07:00:10;24.57;;;20.37;;
18290;SDS011;9271;48.590;8.866;2023-05-16T07:02:38;21.63;;;18.83;;
18290;SDS011;9271;48.590;8.866;2023-05-16T07:05:05;25.43;;;19.50;;
18290;SDS011;9271;48.590;8.866;2023-05-16T07:07:33;20.57;;;18.37;;
18290;SDS011;9271;48.590;8.866;2023-05-16T07:10:00;22.50;;;19.20;;
18290;SDS011;9271;48.590;8.866;2023-05-16T07:12:27;21.30;;;18.80;;
18290;SDS011;9271;48.590;8.866;2023-05-16T07:14:54;21.77;;;18.60;;
18290;SDS011;9271;48.590;8.866;2023-05-16T07:17:20;22.20;;;18.93;;
18290;SDS011;9271;48.590;8.866;2023-05-16T07:19:48;19.70;;;17.63;;
18290;SDS011;9271;48.590;8.866;2023-05-16T07:22:14;20.50;;;18.30;;
18290;SDS011;9271;48.590;8.866;2023-05-16T07:24:42;19.60;;;17.50;;
18290;SDS011;9271;48.590;8.866;2023-05-16T07:27:09;19.73;;;16.23;;
18290;SDS011;9271;48.590;8.866;2023-05-16T07:29:36;15.97;;;14.20;;
18290;SDS011;9271;48.590;8.866;2023-05-16T07:32:04;13.10;;;11.70;;
18290;SDS011;9271;48.590;8.866;2023-05-16T07:34:31;11.77;;;10.43;;
18290;SDS011;9271;48.590;8.866;2023-05-16T07:36:58;11.50;;;10.30;;
18290;SDS011;9271;48.590;8.866;2023-05-16T07:39:24;11.17;;;10.17;;
18290;SDS011;9271;48.590;8.866;2023-05-16T07:41:52;10.47;;;9.47;;
18290;SDS011;9271;48.590;8.866;2023-05-16T07:44:19;10.70;;;9.70;;
18290;SDS011;9271;48.590;8.866;2023-05-16T07:46:45;10.43;;;9.40;;
18290;SDS011;9271;48.590;8.866;2023-05-16T07:49:12;10.60;;;9.00;;
18290;SDS011;9271;48.590;8.866;2023-05-16T07:51:39;9.60;;;8.70;;
18290;SDS011;9271;48.590;8.866;2023-05-16T07:54:05;11.13;;;9.93;;
18290;SDS011;9271;48.590;8.866;2023-05-16T07:56:32;11.30;;;10.20;;
18290;SDS011;9271;48.590;8.866;2023-05-16T07:59:00;11.37;;;9.93;;
18290;SDS011;9271;48.590;8.866;2023-05-16T08:01:29;11.10;;;10.10;;
18290;SDS011;9271;48.590;8.866;2023-05-16T08:03:56;10.83;;;9.73;;
18290;SDS011;9271;48.590;8.866;2023-05-16T08:06:23;10.13;;;9.13;;
18290;SDS011;9271;48.590;8.866;2023-05-16T08:08:50;10.53;;;9.53;;
18290;SDS011;9271;48.590;8.866;2023-05-16T08:11:17;10.07;;;8.73;;
18290;SDS011;9271;48.590;8.866;2023-05-16T08:13:46;10.07;;;9.07;;
18290;SDS011;9271;48.590;8.866;2023-05-16T08:16:14;10.27;;;8.87;;
18290;SDS011;9271;48.590;8.866;2023-05-16T08:18:41;9.67;;;8.67;;
18290;SDS011;9271;48.590;8.866;2023-05-16T08:21:08;9.20;;;8.37;;
18290;SDS011;9271;48.590;8.866;2023-05-16T08:23:34;9.07;;;8.17;;
18290;SDS011;9271;48.590;8.866;2023-05-16T08:26:01;8.40;;;7.60;;
18290;SDS011;9271;48.590;8.866;2023-05-16T08:28:28;7.40;;;6.80;;
18290;SDS011;9271;48.590;8.866;2023-05-16T08:30:55;7.03;;;6.43;;
18290;SDS011;9271;48.590;8.866;2023-05-16T08:33:23;6.33;;;5.80;;
18290;SDS011;9271;48.590;8.866;2023-05-16T08:35:50;7.47;;;5.97;;
18290;SDS011;9271;48.590;8.866;2023-05-16T08:38:17;5.70;;;5.20;;
18290;SDS011;9271;48.590;8.866;2023-05-16T08:40:44;6.00;;;5.50;;
18290;SDS011;9271;48.590;8.866;2023-05-16T08:43:11;6.27;;;5.77;;
18290;SDS011;9271;48.590;8.866;2023-05-16T08:45:39;6.80;;;6.20;;
18290;SDS011;9271;48.590;8.866;2023-05-16T08:48:06;6.73;;;6.13;;
18290;SDS011;9271;48.590;8.866;2023-05-16T08:50:36;7.23;;;6.53;;
18290;SDS011;9271;48.590;8.866;2023-05-16T08:53:04;8.93;;;8.03;;
18290;SDS011;9271;48.590;8.866;2023-05-16T08:55:33;8.73;;;7.73;;
18290;SDS011;9271;48.590;8.866;2023-05-16T08:58:00;8.60;;;7.90;;
18290;SDS011;9271;48.590;8.866;2023-05-16T09:00:28;8.83;;;8.03;;
18290;SDS011;9271;48.590;8.866;2023-05-16T09:02:55;9.47;;;8.57;;
18290;SDS011;9271;48.590;8.866;2023-05-16T09:05:22;9.83;;;8.93;;
18290;SDS011;9271;48.590;8.866;2023-05-16T09:07:50;10.77;;;9.60;;
18290;SDS011;9271;48.590;8.866;2023-05-16T09:10:17;11.27;;;10.17;;
18290;SDS011;9271;48.590;8.866;2023-05-16T09:12:44;10.90;;;9.90;;
18290;SDS011;9271;48.590;8.866;2023-05-16T09:15:11;12.60;;;11.30;;
18290;SDS011;9271;48.590;8.866;2023-05-16T09:17:38;12.63;;;11.43;;
18290;SDS011;9271;48.590;8.866;2023-05-16T09:20:09;16.43;;;12.60;;
18290;SDS011;9271;48.590;8.866;2023-05-16T09:22:37;14.40;;;13.00;;
18290;SDS011;9271;48.590;8.866;2023-05-16T09:25:06;13.77;;;12.37;;
18290;SDS011;9271;48.590;8.866;2023-05-16T09:27:33;14.30;;;12.80;;
18290;SDS011;9271;48.590;8.866;2023-05-16T09:30:00;15.57;;;12.73;;
18290;SDS011;9271;48.590;8.866;2023-05-16T09:32:27;14.03;;;12.63;;
18290;SDS011;9271;48.590;8.866;2023-05-16T09:34:54;14.50;;;12.97;;
18290;SDS011;9271;48.590;8.866;2023-05-16T09:37:22;15.77;;;14.17;;
18290;SDS011;9271;48.590;8.866;2023-05-16T09:39:50;14.83;;;13.33;;
18290;SDS011;9271;48.590;8.866;2023-05-16T09:42:20;15.03;;;13.17;;
18290;SDS011;9271;48.590;8.866;2023-05-16T09:44:47;14.50;;;12.97;;
18290;SDS011;9271;48.590;8.866;2023-05-16T09:47:17;15.20;;;12.93;;
18290;SDS011;9271;48.590;8.866;2023-05-16T09:49:45;15.73;;;14.13;;
18290;SDS011;9271;48.590;8.866;2023-05-16T09:52:14;14.07;;;12.70;;
18290;SDS011;9271;48.590;8.866;2023-05-16T09:54:41;14.53;;;13.03;;
18290;SDS011;9271;48.590;8.866;2023-05-16T09:57:08;15.53;;;13.20;;
18290;SDS011;9271;48.590;8.866;2023-05-16T09:59:37;14.67;;;13.10;;
18290;SDS011;9271;48.590;8.866;2023-05-16T10:02:05;16.80;;;13.20;;
18290;SDS011;9271;48.590;8.866;2023-05-16T10:04:32;14.43;;;12.83;;
18290;SDS011;9271;48.590;8.866;2023-05-16T10:07:01;13.93;;;12.53;;
18290;SDS011;9271;48.590;8.866;2023-05-16T10:09:30;13.27;;;11.87;;
18290;SDS011;9271;48.590;8.866;2023-05-16T10:11:59;13.03;;;11.70;;
18290;SDS011;9271;48.590;8.866;2023-05-16T10:14:28;14.07;;;12.30;;
18290;SDS011;9271;48.590;8.866;2023-05-16T10:17:00;13.60;;;12.20;;
18290;SDS011;9271;48.590;8.866;2023-05-16T10:19:29;13.00;;;11.80;;
18290;SDS011;9271;48.590;8.866;2023-05-16T10:21:59;13.37;;;12.00;;
18290;SDS011;9271;48.590;8.866;2023-05-16T10:24:30;12.23;;;10.73;;
18290;SDS011;9271;48.590;8.866;2023-05-16T10:27:03;13.20;;;11.90;;
18290;SDS011;9271;48.590;8.866;2023-05-16T10:29:31;13.60;;;11.60;;
18290;SDS011;9271;48.590;8.866;2023-05-16T10:31:57;12.80;;;11.50;;
18290;SDS011;9271;48.590;8.866;2023-05-16T10:34:26;12.37;;;11.17;;
18290;SDS011;9271;48.590;8.866;2023-05-16T10:36:53;12.07;;;10.87;;
18290;SDS011;9271;48.590;8.866;2023-05-16T10:39:20;11.70;;;10.50;;
18290;SDS011;9271;48.590;8.866;2023-05-16T10:41:47;11.47;;;10.00;;
18290;SDS011;9271;48.590;8.866;2023-05-16T10:44:15;11.90;;;9.77;;
18290;SDS011;9271;48.590;8.866;2023-05-16T10:46:42;11.30;;;10.10;;
18290;SDS011;9271;48.590;8.866;2023-05-16T10:49:19;10.37;;;9.27;;
18290;SDS011;9271;48.590;8.866;2023-05-16T10:51:48;9.80;;;8.93;;
18290;SDS011;9271;48.590;8.866;2023-05-16T10:54:32;8.67;;;7.73;;
18290;SDS011;9271;48.590;8.866;2023-05-16T10:57:02;8.90;;;7.33;;
18290;SDS011;9271;48.590;8.866;2023-05-16T10:59:39;8.27;;;6.40;;
18290;SDS011;9271;48.590;8.866;2023-05-16T11:02:20;7.03;;;6.40;;
18290;SDS011;9271;48.590;8.866;2023-05-16T11:04:50;7.13;;;6.40;;
18290;SDS011;9271;48.590;8.866;2023-05-16T11:07:18;6.93;;;6.33;;
18290;SDS011;9271;48.590;8.866;2023-05-16T11:09:52;8.57;;;5.90;;
18290;SDS011;9271;48.590;8.866;2023-05-16T11:12:34;5.90;;;5.40;;
18290;SDS011;9271;48.590;8.866;2023-05-16T11:15:06;6.23;;;5.63;;
18290;SDS011;9271;48.590;8.866;2023-05-16T11:17:43;6.20;;;5.43;;
18290;SDS011;9271;48.590;8.866;2023-05-16T11:20:24;5.83;;;5.23;;
18290;SDS011;9271;48.590;8.866;2023-05-16T11:22:58;6.00;;;5.40;;
18290;SDS011;9271;48.590;8.866;2023-05-16T11:25:44;6.17;;;5.07;;
18290;SDS011;9271;48.590;8.866;2023-05-16T11:28:12;5.20;;;4.70;;
18290;SDS011;9271;48.590;8.866;2023-05-16T11:30:41;5.03;;;4.63;;
18290;SDS011;9271;48.590;8.866;2023-05-16T11:33:08;4.80;;;4.40;;
18290;SDS011;9271;48.590;8.866;2023-05-16T11:35:36;4.43;;;4.03;;
18290;SDS011;9271;48.590;8.866;2023-05-16T11:38:03;4.53;;;4.00;;
18290;SDS011;9271;48.590;8.866;2023-05-16T11:40:29;5.33;;;3.70;;
18290;SDS011;9271;48.590;8.866;2023-05-16T11:42:58;4.73;;;3.67;;
18290;SDS011;9271;48.590;8.866;2023-05-16T11:45:27;4.63;;;3.77;;
18290;SDS011;9271;48.590;8.866;2023-05-16T11:47:54;4.27;;;3.87;;
18290;SDS011;9271;48.590;8.866;2023-05-16T11:50:28;4.83;;;4.43;;
18290;SDS011;9271;48.590;8.866;2023-05-16T11:52:56;5.00;;;4.60;;
18290;SDS011;9271;48.590;8.866;2023-05-16T11:55:25;4.70;;;4.30;;
18290;SDS011;9271;48.590;8.866;2023-05-16T11:57:54;5.07;;;4.57;;
18290;SDS011;9271;48.590;8.866;2023-05-16T12:00:22;5.87;;;5.37;;
18290;SDS011;9271;48.590;8.866;2023-05-16T12:02:50;5.60;;;4.93;;
18290;SDS011;9271;48.590;8.866;2023-05-16T12:05:18;5.27;;;4.87;;
18290;SDS011;9271;48.590;8.866;2023-05-16T12:07:49;5.90;;;5.40;;
18290;SDS011;9271;48.590;8.866;2023-05-16T12:10:19;6.53;;;6.00;;
18290;SDS011;9271;48.590;8.866;2023-05-16T12:12:48;6.87;;;6.27;;
18290;SDS011;9271;48.590;8.866;2023-05-16T12:15:16;6.43;;;5.83;;
18290;SDS011;9271;48.590;8.866;2023-05-16T12:17:44;7.17;;;5.50;;
18290;SDS011;9271;48.590;8.866;2023-05-16T12:20:11;6.43;;;5.83;;
18290;SDS011;9271;48.590;8.866;2023-05-16T12:22:40;5.27;;;4.87;;
18290;SDS011;9271;48.590;8.866;2023-05-16T12:25:21;5.53;;;4.83;;
18290;SDS011;9271;48.590;8.866;2023-05-16T12:27:52;5.27;;;4.80;;
18290;SDS011;9271;48.590;8.866;2023-05-16T12:30:20;5.70;;;4.60;;
18290;SDS011;9271;48.590;8.866;2023-05-16T12:32:51;4.73;;;4.10;;
18290;SDS011;9271;48.590;8.866;2023-05-16T12:35:18;4.17;;;3.77;;
18290;SDS011;9271;48.590;8.866;2023-05-16T12:37:45;7.07;;;3.63;;
18290;SDS011;9271;48.590;8.866;2023-05-16T12:40:12;3.63;;;3.33;;
18290;SDS011;9271;48.590;8.866;2023-05-16T12:42:40;3.77;;;3.40;;
18290;SDS011;9271;48.590;8.866;2023-05-16T12:45:13;3.83;;;3.20;;
18290;SDS011;9271;48.590;8.866;2023-05-16T12:47:41;3.07;;;2.87;;
18290;SDS011;9271;48.590;8.866;2023-05-16T12:50:08;2.47;;;2.37;;
18290;SDS011;9271;48.590;8.866;2023-05-16T12:52:41;4.20;;;2.40;;
18290;SDS011;9271;48.590;8.866;2023-05-16T12:55:12;2.43;;;2.23;;
18290;SDS011;9271;48.590;8.866;2023-05-16T12:57:41;2.40;;;2.30;;
18290;SDS011;9271;48.590;8.866;2023-05-16T13:00:09;3.77;;;2.10;;
18290;SDS011;9271;48.590;8.866;2023-05-16T13:02:37;2.77;;;2.53;;
18290;SDS011;9271;48.590;8.866;2023-05-16T13:05:04;2.70;;;2.50;;
18290;SDS011;9271;48.590;8.866;2023-05-16T13:07:32;3.17;;;2.47;;
18290;SDS011;9271;48.590;8.866;2023-05-16T13:09:59;4.90;;;2.70;;
18290;SDS011;9271;48.590;8.866;2023-05-16T13:12:26;3.27;;;2.60;;
18290;SDS011;9271;48.590;8.866;2023-05-16T13:14:54;3.30;;;2.73;;
18290;SDS011;9271;48.590;8.866;2023-05-16T13:17:21;3.10;;;2.70;;
18290;SDS011;9271;48.590;8.866;2023-05-16T13:19:48;3.10;;;2.90;;
18290;SDS011;9271;48.590;8.866;2023-05-16T13:22:16;3.00;;;2.80;;
18290;SDS011;9271;48.590;8.866;2023-05-16T13:24:42;2.90;;;2.70;;
18290;SDS011;9271;48.590;8.866;2023-05-16T13:27:09;3.93;;;3.53;;
18290;SDS011;9271;48.590;8.866;2023-05-16T13:29:36;9.07;;;5.50;;
18290;SDS011;9271;48.590;8.866;2023-05-16T13:32:04;4.90;;;3.77;;
18290;SDS011;9271;48.590;8.866;2023-05-16T13:34:31;3.03;;;2.83;;
18290;SDS011;9271;48.590;8.866;2023-05-16T13:36:58;3.60;;;3.03;;
18290;SDS011;9271;48.590;8.866;2023-05-16T13:39:25;2.73;;;2.53;;
18290;SDS011;9271;48.590;8.866;2023-05-16T13:41:51;4.33;;;2.60;;
18290;SDS011;9271;48.590;8.866;2023-05-16T13:44:18;3.63;;;2.57;;
18290;SDS011;9271;48.590;8.866;2023-05-16T13:46:46;2.60;;;2.40;;
18290;SDS011;9271;48.590;8.866;2023-05-16T13:49:14;2.90;;;2.40;;
18290;SDS011;9271;48.590;8.866;2023-05-16T13:51:41;2.60;;;2.40;;
18290;SDS011;9271;48.590;8.866;2023-05-16T13:54:07;5.53;;;2.87;;
18290;SDS011;9271;48.590;8.866;2023-05-16T13:56:34;1.97;;;1.87;;
18290;SDS011;9271;48.590;8.866;2023-05-16T13:59:01;2.40;;;2.20;;
18290;SDS011;9271;48.590;8.866;2023-05-16T14:01:27;2.43;;;1.90;;
18290;SDS011;9271;48.590;8.866;2023-05-16T14:03:54;2.40;;;2.20;;
18290;SDS011;9271;48.590;8.866;2023-05-16T14:06:22;2.70;;;2.50;;
18290;SDS011;9271;48.590;8.866;2023-05-16T14:08:48;2.60;;;2.40;;
18290;SDS011;9271;48.590;8.866;2023-05-16T14:11:15;2.30;;;2.20;;
18290;SDS011;9271;48.590;8.866;2023-05-16T14:13:43;3.47;;;2.20;;
18290;SDS011;9271;48.590;8.866;2023-05-16T14:16:10;2.70;;;2.23;;
18290;SDS011;9271;48.590;8.866;2023-05-16T14:18:37;4.77;;;2.10;;
18290;SDS011;9271;48.590;8.866;2023-05-16T14:21:03;2.87;;;2.07;;
18290;SDS011;9271;48.590;8.866;2023-05-16T14:23:32;2.40;;;2.20;;
18290;SDS011;9271;48.590;8.866;2023-05-16T14:25:58;2.57;;;2.30;;
18290;SDS011;9271;48.590;8.866;2023-05-16T14:28:25;2.23;;;2.03;;
18290;SDS011;9271;48.590;8.866;2023-05-16T14:30:52;2.30;;;2.10;;
18290;SDS011;9271;48.590;8.866;2023-05-16T14:33:19;2.27;;;2.07;;
18290;SDS011;9271;48.590;8.866;2023-05-16T14:35:45;4.10;;;2.53;;
18290;SDS011;9271;48.590;8.866;2023-05-16T14:38:14;1.90;;;1.80;;
18290;SDS011;9271;48.590;8.866;2023-05-16T14:40:41;3.73;;;2.10;;
18290;SDS011;9271;48.590;8.866;2023-05-16T14:43:08;2.30;;;1.97;;
18290;SDS011;9271;48.590;8.866;2023-05-16T14:45:35;3.63;;;2.13;;
18290;SDS011;9271;48.590;8.866;2023-05-16T14:48:03;5.83;;;2.00;;
18290;SDS011;9271;48.590;8.866;2023-05-16T14:50:30;4.87;;;2.50;;